TimeCDT,TemperatureF,Dew PointF,Humidity,Sea Level PressureIn,VisibilityMPH,Wind Direction,Wind SpeedMPH,Gust SpeedMPH,PrecipitationIn,Events,Conditions,WindDirDegrees,DateUTC
12:53 AM,66.0,63.0,90,30.09,10.0,SSE,3.5,-,N/A,,Clear,160,2013-10-27 05:53:00
1:53 AM,64.9,62.1,90,30.07,10.0,SSE,3.5,-,N/A,,Clear,150,2013-10-27 06:53:00
2:53 AM,64.9,62.1,90,30.06,10.0,SSE,3.5,-,N/A,,Mostly Cloudy,150,2013-10-27 07:53:00
3:53 AM,66.9,64.0,90,30.04,10.0,SSE,5.8,-,N/A,,Overcast,150,2013-10-27 08:53:00
4:53 AM,66.9,64.0,90,30.02,10.0,South,8.1,-,N/A,,Mostly Cloudy,180,2013-10-27 09:53:00
5:53 AM,70.0,64.9,84,30.01,10.0,South,8.1,-,N/A,,Overcast,190,2013-10-27 10:53:00
6:13 AM,69.8,64.4,83,30.07,10.0,NNW,25.3,34.5,N/A,Thunderstorm,Overcast,330,2013-10-27 11:13:00
6:23 AM,62.6,59.0,88,30.08,2.0,North,18.4,43.7,0.01,Rain-Thunderstorm,Heavy Thunderstorms and Rain,360,2013-10-27 11:23:00
6:29 AM,62.6,59.0,88,30.08,1.8,North,12.7,31.1,0.02,Rain-Thunderstorm,Heavy Thunderstorms and Rain,350,2013-10-27 11:29:00
6:38 AM,60.8,59.0,94,30.08,2.0,NNE,15.0,25.3,0.03,Rain-Thunderstorm,Heavy Rain,20,2013-10-27 11:38:00
6:49 AM,62.6,60.8,94,30.09,4.0,North,13.8,-,0.03,Rain,Rain,10,2013-10-27 11:49:00
6:53 AM,62.1,60.1,93,30.09,5.0,North,12.7,-,0.04,Rain,Rain,10,2013-10-27 11:53:00
7:28 AM,62.6,60.8,94,30.11,10.0,North,8.1,-,N/A,Rain,Light Rain,360,2013-10-27 12:28:00
7:53 AM,63.0,60.1,90,30.10,7.0,NE,8.1,-,N/A,Rain,Rain,40,2013-10-27 12:53:00
8:22 AM,62.6,60.8,94,30.10,6.0,ENE,5.8,-,0.01,Rain,Heavy Rain,60,2013-10-27 13:22:00
8:53 AM,63.0,61.0,93,30.12,3.0,Calm,Calm,-,0.01,Rain,Heavy Rain,0,2013-10-27 13:53:00
9:05 AM,62.6,60.8,94,30.12,2.5,SE,5.8,-,0.01,Rain,Heavy Rain,140,2013-10-27 14:05:00
9:17 AM,62.6,60.8,94,30.12,4.0,ESE,3.5,-,0.01,Rain,Rain,120,2013-10-27 14:17:00
9:53 AM,63.0,62.1,97,30.12,8.0,South,5.8,-,0.02,Rain,Rain,170,2013-10-27 14:53:00
10:02 AM,62.6,62.6,100,30.10,10.0,SSE,8.1,-,0.00,Rain,Light Rain,160,2013-10-27 15:02:00
10:53 AM,64.9,63.0,93,30.12,10.0,SSW,9.2,-,0.02,Rain,Light Rain,200,2013-10-27 15:53:00
11:53 AM,66.9,64.0,90,30.10,10.0,SSW,4.6,-,0.01,Rain,Light Rain,200,2013-10-27 16:53:00
12:53 PM,68.0,64.9,90,30.09,10.0,SW,8.1,-,0.01,Rain,Light Rain,220,2013-10-27 17:53:00
1:53 PM,68.0,66.0,93,30.06,10.0,NW,4.6,-,0.01,,Overcast,310,2013-10-27 18:53:00
2:36 PM,71.6,66.2,83,30.04,10.0,NW,4.6,-,N/A,,Overcast,310,2013-10-27 19:36:00
2:53 PM,71.1,66.9,87,30.04,10.0,Variable,3.5,-,N/A,,Overcast,0,2013-10-27 19:53:00
3:53 PM,73.9,66.9,79,30.04,10.0,Calm,Calm,-,N/A,,Mostly Cloudy,0,2013-10-27 20:53:00
4:18 PM,73.4,66.2,78,30.02,10.0,Calm,Calm,-,N/A,,Scattered Clouds,0,2013-10-27 21:18:00
4:53 PM,73.9,66.0,76,30.02,10.0,Calm,Calm,-,N/A,,Mostly Cloudy,0,2013-10-27 21:53:00
5:53 PM,73.9,66.0,76,30.02,10.0,Calm,Calm,-,N/A,,Clear,0,2013-10-27 22:53:00
6:53 PM,70.0,66.0,87,30.02,10.0,Calm,Calm,-,0.01,,Clear,0,2013-10-27 23:53:00
7:53 PM,68.0,64.9,90,30.04,10.0,Calm,Calm,-,N/A,,Clear,0,2013-10-28 00:53:00
8:53 PM,68.0,64.9,90,30.05,10.0,NE,5.8,-,N/A,,Scattered Clouds,40,2013-10-28 01:53:00
9:53 PM,68.0,64.0,87,30.06,10.0,East,3.5,-,N/A,,Clear,80,2013-10-28 02:53:00
10:53 PM,66.9,63.0,87,30.06,10.0,East,4.6,-,N/A,,Mostly Cloudy,80,2013-10-28 03:53:00
11:02 PM,66.2,62.6,88,30.06,10.0,East,3.5,-,N/A,,Scattered Clouds,80,2013-10-28 04:02:00
11:53 PM,68.0,63.0,84,30.06,10.0,Calm,Calm,-,N/A,,Partly Cloudy,0,2013-10-28 04:53:00